Time;durP1;ratioP1;P1;durP2;ratioP2;P2;SDS_P1;SDS_P2;PMS_P1;PMS_P2;Temp;Humidity;BMP_temperature;BMP_pressure;BME280_temperature;BME280_humidity;BME280_pressure;Samples;Min_cycle;Max_cycle;Signal;HPM_P1;HPM_P2
2022/03/05 00:01:01;;;;;;;71.05;10.73;;;;;;;;;;5092354;28;20204;-70
2022/03/05 00:03:29;;;;;;;71.05;10.50;;;;;;;;;;5092296;28;20589;-69
2022/03/05 00:05:57;;;;;;;71.50;11.00;;;;;;;;;;5092193;28;20228;-69
2022/03/05 00:08:24;;;;;;;70.72;11.57;;;;;;;;;;5091293;28;20211;-69
2022/03/05 00:10:51;;;;;;;68.45;10.40;;;;;;;;;;5092312;28;20579;-69
2022/03/05 00:13:19;;;;;;;72.88;11.00;;;;;;;;;;5092023;28;20731;-71
2022/03/05 00:15:47;;;;;;;75.70;11.20;;;;;;;;;;5092055;28;20228;-69
2022/03/05 00:18:14;;;;;;;71.32;11.38;;;;;;;;;;5091870;28;20295;-69
2022/03/05 00:20:44;;;;;;;75.47;12.65;;;;;;;;;;5092080;28;20205;-69
2022/03/05 00:23:12;;;;;;;69.20;10.63;;;;;;;;;;5091994;28;20761;-68
2022/03/05 00:25:39;;;;;;;74.90;11.18;;;;;;;;;;5091885;28;20724;-70
2022/03/05 00:28:06;;;;;;;72.10;11.13;;;;;;;;;;5091257;28;20226;-68
2022/03/05 00:30:33;;;;;;;70.25;11.00;;;;;;;;;;5091865;28;20250;-70
2022/03/05 00:33:00;;;;;;;72.70;11.77;;;;;;;;;;5091690;28;20219;-68
2022/03/05 00:35:28;;;;;;;69.57;10.55;;;;;;;;;;5092003;28;20228;-69
2022/03/05 00:37:56;;;;;;;78.88;13.20;;;;;;;;;;5091328;28;20200;-68
2022/03/05 00:40:23;;;;;;;74.15;13.75;;;;;;;;;;5091997;28;20204;-70
2022/03/05 00:42:51;;;;;;;72.10;12.15;;;;;;;;;;5091761;28;20668;-68
2022/03/05 00:45:18;;;;;;;68.50;9.70;;;;;;;;;;5091872;28;20220;-68
2022/03/05 00:47:45;;;;;;;74.25;10.75;;;;;;;;;;5091035;28;20204;-68
2022/03/05 00:50:12;;;;;;;72.70;10.55;;;;;;;;;;5091928;28;20204;-68
2022/03/05 00:52:40;;;;;;;74.82;11.73;;;;;;;;;;5091801;28;20652;-69
2022/03/05 00:55:09;;;;;;;74.63;12.13;;;;;;;;;;5091865;28;20221;-69
2022/03/05 00:57:36;;;;;;;68.35;10.57;;;;;;;;;;5091312;28;20303;-68
2022/03/05 01:00:05;;;;;;;71.78;11.10;;;;;;;;;;5093091;28;20664;-68
2022/03/05 01:02:32;;;;;;;74.55;11.38;;;;;;;;;;5095445;28;20624;-70
2022/03/05 01:04:59;;;;;;;72.32;10.93;;;;;;;;;;5095494;28;20234;-68
2022/03/05 01:07:26;;;;;;;71.10;11.25;;;;;;;;;;5094840;28;20699;-69
2022/03/05 01:09:53;;;;;;;69.35;9.88;;;;;;;;;;5095650;28;20200;-68
2022/03/05 01:12:22;;;;;;;72.00;11.25;;;;;;;;;;5095439;28;20243;-69
2022/03/05 01:14:49;;;;;;;69.63;10.55;;;;;;;;;;5095257;28;20243;-68
2022/03/05 01:17:18;;;;;;;74.72;11.32;;;;;;;;;;5094542;28;20587;-69
2022/03/05 01:19:45;;;;;;;76.88;11.30;;;;;;;;;;5095273;28;20215;-68
2022/03/05 01:22:12;;;;;;;75.65;12.45;;;;;;;;;;5095265;28;20214;-71
2022/03/05 01:24:40;;;;;;;75.47;11.35;;;;;;;;;;5095179;28;20685;-68
2022/03/05 01:27:07;;;;;;;74.50;11.65;;;;;;;;;;5094795;28;20291;-71
2022/03/05 01:29:35;;;;;;;70.03;10.45;;;;;;;;;;5094562;28;20300;-69
2022/03/05 01:32:03;;;;;;;74.60;13.95;;;;;;;;;;5095226;28;20211;-71
2022/03/05 01:34:30;;;;;;;73.80;11.70;;;;;;;;;;5094765;28;20263;-68
2022/03/05 01:36:57;;;;;;;79.90;12.10;;;;;;;;;;5094968;28;20240;-69
2022/03/05 01:39:24;;;;;;;68.20;9.63;;;;;;;;;;5094290;28;20226;-68
2022/03/05 01:41:55;;;;;;;70.88;10.80;;;;;;;;;;5094894;28;20212;-69
2022/03/05 01:44:22;;;;;;;68.93;10.00;;;;;;;;;;5094588;28;20208;-68
2022/03/05 01:46:50;;;;;;;66.80;8.70;;;;;;;;;;5094695;28;20316;-70
2022/03/05 01:49:17;;;;;;;71.28;8.80;;;;;;;;;;5094084;28;20208;-68
2022/03/05 01:51:45;;;;;;;68.10;8.48;;;;;;;;;;5094740;28;20587;-68
2022/03/05 01:54:12;;;;;;;67.65;9.90;;;;;;;;;;5094586;28;20220;-69
2022/03/05 01:56:40;;;;;;;67.47;9.60;;;;;;;;;;5094374;28;20230;-69
2022/03/05 01:59:08;;;;;;;69.10;10.15;;;;;;;;;;5093957;28;20291;-70
2022/03/05 02:01:35;;;;;;;68.40;9.52;;;;;;;;;;5094710;28;20295;-68
2022/03/05 02:04:04;;;;;;;68.88;9.52;;;;;;;;;;5094279;28;20200;-69
2022/03/05 02:06:31;;;;;;;68.63;8.70;;;;;;;;;;5094355;28;20227;-69
2022/03/05 02:08:58;;;;;;;67.55;9.77;;;;;;;;;;5093476;28;20624;-70
2022/03/05 02:11:26;;;;;;;70.93;10.60;;;;;;;;;;5093679;28;20227;-70
2022/03/05 02:13:54;;;;;;;67.22;9.60;;;;;;;;;;5094377;28;20255;-69
2022/03/05 02:16:21;;;;;;;72.30;11.35;;;;;;;;;;5094217;28;20252;-69
2022/03/05 02:18:49;;;;;;;68.30;9.60;;;;;;;;;;5093609;28;20204;-70
2022/03/05 02:21:18;;;;;;;71.50;10.32;;;;;;;;;;5094031;28;20680;-69
2022/03/05 02:23:45;;;;;;;69.95;9.00;;;;;;;;;;5093832;28;20232;-69
2022/03/05 02:26:13;;;;;;;70.72;10.27;;;;;;;;;;5094214;28;20220;-69
2022/03/05 02:28:40;;;;;;;69.30;9.32;;;;;;;;;;5093044;28;20306;-69
2022/03/05 02:31:08;;;;;;;73.32;10.77;;;;;;;;;;5094030;28;20291;-69
2022/03/05 02:33:35;;;;;;;71.93;9.70;;;;;;;;;;5093773;28;20228;-69
2022/03/05 02:36:03;;;;;;;72.65;10.48;;;;;;;;;;5093824;28;20235;-71
2022/03/05 02:38:31;;;;;;;66.38;8.85;;;;;;;;;;5092924;28;20241;-69
2022/03/05 02:40:59;;;;;;;68.05;9.90;;;;;;;;;;5093907;28;20226;-70
2022/03/05 02:43:26;;;;;;;68.32;10.60;;;;;;;;;;5093718;28;20219;-69
2022/03/05 02:45:54;;;;;;;66.68;10.10;;;;;;;;;;5090573;28;20224;-68
2022/03/05 02:48:22;;;;;;;70.97;10.40;;;;;;;;;;5092774;28;20703;-69
2022/03/05 02:50:50;;;;;;;68.88;10.15;;;;;;;;;;5093475;28;20291;-71
2022/03/05 02:53:18;;;;;;;68.18;9.73;;;;;;;;;;5093642;28;20215;-70
2022/03/05 02:55:47;;;;;;;70.30;9.80;;;;;;;;;;5093912;28;20250;-71
2022/03/05 02:58:14;;;;;;;70.85;10.23;;;;;;;;;;5092677;28;20583;-70
2022/03/05 03:00:41;;;;;;;69.38;9.48;;;;;;;;;;5093231;28;20211;-71
2022/03/05 03:03:08;;;;;;;67.72;10.20;;;;;;;;;;5093156;28;20240;-69
2022/03/05 03:05:35;;;;;;;70.30;8.82;;;;;;;;;;5093221;28;20303;-70
2022/03/05 03:08:02;;;;;;;66.90;10.30;;;;;;;;;;5092618;28;20207;-69
2022/03/05 03:10:29;;;;;;;69.65;9.88;;;;;;;;;;5093302;28;20212;-70
2022/03/05 03:12:58;;;;;;;68.93;8.95;;;;;;;;;;5092902;28;20303;-69
2022/03/05 03:15:26;;;;;;;73.00;9.93;;;;;;;;;;5093366;28;20228;-71
2022/03/05 03:17:53;;;;;;;70.65;10.10;;;;;;;;;;5092448;28;20215;-71
2022/03/05 03:20:22;;;;;;;70.15;9.93;;;;;;;;;;5093072;28;20281;-69
2022/03/05 03:22:49;;;;;;;68.13;8.70;;;;;;;;;;5092307;28;20206;-69
2022/03/05 03:25:17;;;;;;;66.25;8.63;;;;;;;;;;5092759;28;20310;-69
2022/03/05 03:27:44;;;;;;;71.93;9.52;;;;;;;;;;5092101;28;20204;-70
2022/03/05 03:30:13;;;;;;;71.53;10.63;;;;;;;;;;5092687;28;20298;-69
2022/03/05 03:32:40;;;;;;;71.63;10.00;;;;;;;;;;5092770;28;20203;-69
2022/03/05 03:35:08;;;;;;;67.32;8.95;;;;;;;;;;5092599;28;20243;-68
2022/03/05 03:37:36;;;;;;;67.88;9.25;;;;;;;;;;5091943;28;20291;-69
2022/03/05 03:40:04;;;;;;;69.80;10.40;;;;;;;;;;5092393;28;20290;-70
2022/03/05 03:42:32;;;;;;;74.47;10.75;;;;;;;;;;5092736;28;20204;-69
2022/03/05 03:44:59;;;;;;;69.88;10.60;;;;;;;;;;5092624;28;20315;-69
2022/03/05 03:47:27;;;;;;;72.35;10.20;;;;;;;;;;5092007;28;20667;-69
2022/03/05 03:49:54;;;;;;;66.30;8.20;;;;;;;;;;5092455;28;20290;-70
2022/03/05 03:52:21;;;;;;;67.68;8.70;;;;;;;;;;5092448;28;20579;-69
2022/03/05 03:54:49;;;;;;;71.07;9.07;;;;;;;;;;5092102;28;20228;-70
2022/03/05 03:57:17;;;;;;;72.53;10.07;;;;;;;;;;5091591;28;20208;-68
2022/03/05 03:59:46;;;;;;;76.88;10.32;;;;;;;;;;5092461;28;20206;-67
2022/03/05 04:02:14;;;;;;;72.35;9.90;;;;;;;;;;5092444;28;20204;-68
2022/03/05 04:04:42;;;;;;;65.60;8.60;;;;;;;;;;5092197;28;20196;-69
2022/03/05 04:09:55;;;;;;;72.97;11.52;;;;;;;;;;5092481;28;20199;-69
2022/03/05 04:12:22;;;;;;;69.68;10.07;;;;;;;;;;5092013;28;20215;-68
2022/03/05 04:14:50;;;;;;;69.82;10.45;;;;;;;;;;5092072;28;20775;-69
2022/03/05 04:17:17;;;;;;;72.85;9.68;;;;;;;;;;5091442;28;20210;-68
2022/03/05 04:19:45;;;;;;;71.95;8.98;;;;;;;;;;5092135;28;20735;-69
2022/03/05 04:22:12;;;;;;;68.97;9.13;;;;;;;;;;5092206;28;20204;-68
2022/03/05 04:24:40;;;;;;;67.03;9.13;;;;;;;;;;5091778;28;20203;-69
2022/03/05 04:27:07;;;;;;;71.25;10.50;;;;;;;;;;5091741;28;20208;-70
2022/03/05 04:29:34;;;;;;;69.32;9.63;;;;;;;;;;5091841;28;20589;-69
2022/03/05 04:32:02;;;;;;;71.50;9.88;;;;;;;;;;5091903;28;20586;-69
2022/03/05 04:34:29;;;;;;;72.15;11.15;;;;;;;;;;5094275;28;20739;-68
2022/03/05 04:36:57;;;;;;;73.43;10.20;;;;;;;;;;5096342;28;20311;-69
2022/03/05 04:39:24;;;;;;;66.43;9.30;;;;;;;;;;5095885;28;20208;-69
2022/03/05 04:41:53;;;;;;;72.60;10.38;;;;;;;;;;5096207;28;20200;-71
2022/03/05 04:44:20;;;;;;;69.57;10.20;;;;;;;;;;5095957;28;20202;-69
2022/03/05 04:46:47;;;;;;;79.03;10.23;;;;;;;;;;5096285;28;20258;-69
2022/03/05 04:49:14;;;;;;;68.75;10.25;;;;;;;;;;5095382;28;20292;-69
2022/03/05 04:51:41;;;;;;;74.95;10.02;;;;;;;;;;5096414;28;20637;-69
2022/03/05 04:54:10;;;;;;;70.15;9.15;;;;;;;;;;5095832;28;20203;-69
2022/03/05 04:56:38;;;;;;;72.40;9.93;;;;;;;;;;5095652;28;20228;-69
2022/03/05 04:59:05;;;;;;;68.90;10.00;;;;;;;;;;5094944;28;20208;-69
2022/03/05 05:01:32;;;;;;;68.78;9.57;;;;;;;;;;5095861;28;20210;-70
2022/03/05 05:03:59;;;;;;;70.20;9.25;;;;;;;;;;5095687;28;20210;-69
2022/03/05 05:06:27;;;;;;;81.80;18.70;;;;;;;;;;5095633;28;20234;-69
2022/03/05 05:08:54;;;;;;;73.43;15.60;;;;;;;;;;5094877;28;20208;-69
2022/03/05 05:11:22;;;;;;;68.55;10.70;;;;;;;;;;5095498;28;20291;-69
2022/03/05 05:13:49;;;;;;;71.30;9.43;;;;;;;;;;5095205;28;20587;-69
2022/03/05 05:16:16;;;;;;;74.13;10.05;;;;;;;;;;5095362;28;20239;-71
2022/03/05 05:19:24;;;;;;;66.43;8.90;;;;;;;;;;5094680;28;20204;-68
2022/03/05 05:21:31;;;;;;;68.22;8.98;;;;;;;;;;5095057;28;20208;-69
2022/03/05 05:23:58;;;;;;;68.63;9.88;;;;;;;;;;5095043;28;20289;-69
2022/03/05 05:26:27;;;;;;;67.95;10.18;;;;;;;;;;5095015;28;20228;-69
2022/03/05 05:28:54;;;;;;;70.38;11.02;;;;;;;;;;5094495;28;20304;-68
2022/03/05 05:31:21;;;;;;;72.90;11.48;;;;;;;;;;5095186;28;20676;-69
2022/03/05 05:33:50;;;;;;;74.13;9.93;;;;;;;;;;5095203;28;20207;-68
2022/03/05 05:36:18;;;;;;;69.55;9.38;;;;;;;;;;5094950;28;20260;-69
2022/03/05 05:38:45;;;;;;;73.78;9.40;;;;;;;;;;5094294;28;20208;-68
2022/03/05 05:41:14;;;;;;;68.80;9.85;;;;;;;;;;5095213;28;20577;-69
2022/03/05 05:43:43;;;;;;;69.93;10.10;;;;;;;;;;5095051;28;20588;-70
2022/03/05 05:46:11;;;;;;;69.43;10.95;;;;;;;;;;5093953;28;20576;-69
2022/03/05 05:48:39;;;;;;;69.82;11.10;;;;;;;;;;5094091;28;20200;-69
2022/03/05 05:51:06;;;;;;;69.45;8.98;;;;;;;;;;5094558;28;20291;-68
2022/03/05 05:53:33;;;;;;;66.43;9.88;;;;;;;;;;5094465;28;20643;-69
2022/03/05 05:56:00;;;;;;;69.75;9.88;;;;;;;;;;5094716;28;20331;-68
2022/03/05 05:58:27;;;;;;;70.47;9.65;;;;;;;;;;5093963;28;20371;-68
2022/03/05 06:00:56;;;;;;;69.82;9.10;;;;;;;;;;5094668;28;20209;-68
2022/03/05 06:03:23;;;;;;;68.88;9.45;;;;;;;;;;5094423;28;20208;-68
2022/03/05 06:05:51;;;;;;;72.18;12.05;;;;;;;;;;5094186;28;20712;-69
2022/03/05 06:08:18;;;;;;;71.18;9.23;;;;;;;;;;5093591;28;20211;-71
2022/03/05 06:10:45;;;;;;;69.47;11.00;;;;;;;;;;5094656;28;20629;-69
2022/03/05 06:13:12;;;;;;;68.88;10.20;;;;;;;;;;5094288;28;20204;-70
2022/03/05 06:15:40;;;;;;;72.05;11.18;;;;;;;;;;5094168;28;20228;-68
2022/03/05 06:18:08;;;;;;;69.28;9.80;;;;;;;;;;5093462;28;20208;-69
2022/03/05 06:20:35;;;;;;;66.57;9.50;;;;;;;;;;5094149;28;20208;-69
2022/03/05 06:23:03;;;;;;;73.30;13.98;;;;;;;;;;5093943;28;20214;-69
2022/03/05 06:25:30;;;;;;;75.53;13.27;;;;;;;;;;5094143;28;20223;-68
2022/03/05 06:27:57;;;;;;;79.00;14.32;;;;;;;;;;5093214;28;20299;-68
2022/03/05 06:30:24;;;;;;;76.80;16.20;;;;;;;;;;5094074;28;20207;-68
2022/03/05 06:32:51;;;;;;;78.75;14.95;;;;;;;;;;5093814;28;20676;-68
2022/03/05 06:35:20;;;;;;;73.88;13.32;;;;;;;;;;5093817;28;20228;-71
2022/03/05 06:37:47;;;;;;;75.38;14.48;;;;;;;;;;5093244;28;20211;-69
2022/03/05 06:40:15;;;;;;;74.65;14.20;;;;;;;;;;5094213;28;20581;-68
2022/03/05 06:42:42;;;;;;;77.30;13.00;;;;;;;;;;5093801;28;20200;-69
2022/03/05 06:45:10;;;;;;;75.10;12.85;;;;;;;;;;5093687;28;20631;-69
2022/03/05 06:47:37;;;;;;;76.35;11.88;;;;;;;;;;5093022;28;20676;-69
2022/03/05 06:50:05;;;;;;;79.18;12.93;;;;;;;;;;5094116;28;20633;-69
2022/03/05 06:52:33;;;;;;;76.30;14.40;;;;;;;;;;5093436;28;20694;-69
2022/03/05 06:55:00;;;;;;;70.65;11.38;;;;;;;;;;5093772;28;20227;-69
2022/03/05 06:57:27;;;;;;;73.75;11.25;;;;;;;;;;5092004;28;20814;-69
2022/03/05 06:59:55;;;;;;;72.90;10.75;;;;;;;;;;5093429;28;20748;-69
2022/03/05 07:02:22;;;;;;;70.95;10.90;;;;;;;;;;5093167;28;20243;-68
2022/03/05 07:04:50;;;;;;;71.28;11.45;;;;;;;;;;5093109;28;20343;-69
2022/03/05 07:07:17;;;;;;;71.80;10.48;;;;;;;;;;5092635;28;20204;-68
2022/03/05 07:09:46;;;;;;;71.10;11.32;;;;;;;;;;5092984;28;20212;-69
2022/03/05 07:12:13;;;;;;;70.25;11.98;;;;;;;;;;5093235;28;20207;-69
2022/03/05 07:14:40;;;;;;;74.55;12.50;;;;;;;;;;5092820;28;20638;-70
2022/03/05 07:17:07;;;;;;;73.00;11.25;;;;;;;;;;5092887;28;20206;-70
2022/03/05 07:19:34;;;;;;;72.95;13.15;;;;;;;;;;5092932;28;20295;-69
2022/03/05 07:22:01;;;;;;;75.50;12.35;;;;;;;;;;5093073;28;20297;-69
2022/03/05 07:24:28;;;;;;;76.35;11.93;;;;;;;;;;5092832;28;20212;-69
2022/03/05 07:26:57;;;;;;;72.88;13.07;;;;;;;;;;5092883;28;20197;-69
2022/03/05 07:29:24;;;;;;;73.80;11.20;;;;;;;;;;5092178;28;20218;-72
2022/03/05 07:31:51;;;;;;;72.90;12.55;;;;;;;;;;5093014;28;20200;-69
2022/03/05 07:34:19;;;;;;;77.40;12.20;;;;;;;;;;5092631;28;20208;-70
2022/03/05 07:36:46;;;;;;;72.80;12.10;;;;;;;;;;5092664;28;20576;-69
2022/03/05 07:39:13;;;;;;;73.85;11.48;;;;;;;;;;5091990;28;20239;-69
2022/03/05 07:41:41;;;;;;;75.78;12.10;;;;;;;;;;5092582;28;20624;-72
2022/03/05 07:44:09;;;;;;;73.18;12.90;;;;;;;;;;5092402;28;20208;-69
2022/03/05 07:46:37;;;;;;;73.25;11.45;;;;;;;;;;5092696;28;20230;-71
2022/03/05 07:49:05;;;;;;;71.00;12.15;;;;;;;;;;5091744;28;20212;-69
2022/03/05 07:51:32;;;;;;;78.25;13.38;;;;;;;;;;5092524;28;20207;-69
2022/03/05 07:53:59;;;;;;;78.05;14.07;;;;;;;;;;5092410;28;20215;-69
2022/03/05 07:56:26;;;;;;;75.03;12.57;;;;;;;;;;5092184;28;20239;-69
2022/03/05 07:58:54;;;;;;;72.40;11.75;;;;;;;;;;5091581;28;20764;-69
2022/03/05 08:01:22;;;;;;;76.18;12.93;;;;;;;;;;5092408;28;20204;-72
2022/03/05 08:03:50;;;;;;;76.68;13.63;;;;;;;;;;5092371;28;20306;-72
2022/03/05 08:06:17;;;;;;;73.22;13.25;;;;;;;;;;5092180;28;20254;-69
2022/03/05 08:08:44;;;;;;;80.50;13.43;;;;;;;;;;5091219;28;20204;-70
2022/03/05 08:11:11;;;;;;;75.18;12.35;;;;;;;;;;5092195;28;20214;-71
2022/03/05 08:13:38;;;;;;;76.93;13.10;;;;;;;;;;5092286;28;20269;-69
2022/03/05 08:16:06;;;;;;;73.68;11.70;;;;;;;;;;5092143;28;20227;-70
2022/03/05 08:18:34;;;;;;;75.55;12.63;;;;;;;;;;5091386;28;20295;-69
2022/03/05 08:21:01;;;;;;;76.20;12.05;;;;;;;;;;5092103;28;20204;-72
2022/03/05 08:23:28;;;;;;;77.43;13.75;;;;;;;;;;5091919;28;20208;-69
2022/03/05 08:25:56;;;;;;;75.28;13.63;;;;;;;;;;5092226;28;20597;-71
2022/03/05 08:28:23;;;;;;;80.90;14.07;;;;;;;;;;5091388;28;20216;-69
2022/03/05 08:30:51;;;;;;;75.28;13.05;;;;;;;;;;5092085;28;20204;-69
2022/03/05 08:33:20;;;;;;;71.18;13.00;;;;;;;;;;5092024;28;20688;-70
2022/03/05 08:35:49;;;;;;;77.53;13.80;;;;;;;;;;5091717;28;20228;-69
2022/03/05 08:38:16;;;;;;;75.45;13.25;;;;;;;;;;5091507;28;20298;-71
2022/03/05 08:40:43;;;;;;;75.72;13.20;;;;;;;;;;5092109;28;20204;-69
2022/03/05 08:43:10;;;;;;;75.70;13.90;;;;;;;;;;5091957;28;20239;-70
2022/03/05 08:45:37;;;;;;;73.82;12.60;;;;;;;;;;5092078;28;20307;-69
2022/03/05 08:48:06;;;;;;;78.50;13.10;;;;;;;;;;5091202;28;20204;-70
2022/03/05 08:50:35;;;;;;;76.72;13.80;;;;;;;;;;5091658;28;20214;-69
2022/03/05 08:53:04;;;;;;;75.10;12.73;;;;;;;;;;5091865;28;20208;-69
2022/03/05 08:55:31;;;;;;;77.47;12.35;;;;;;;;;;5091490;28;20748;-70
2022/03/05 08:57:58;;;;;;;74.78;12.93;;;;;;;;;;5091008;28;20296;-69
2022/03/05 09:00:25;;;;;;;74.13;11.55;;;;;;;;;;5091904;28;20224;-70
2022/03/05 09:02:53;;;;;;;76.47;12.32;;;;;;;;;;5091432;28;20207;-71
2022/03/05 09:05:20;;;;;;;75.72;12.68;;;;;;;;;;5091773;28;20270;-69
2022/03/05 09:07:47;;;;;;;75.10;13.82;;;;;;;;;;5091049;28;20650;-69
2022/03/05 09:10:16;;;;;;;72.80;12.45;;;;;;;;;;5091666;28;20296;-69
2022/03/05 09:12:43;;;;;;;78.20;12.35;;;;;;;;;;5091538;28;20200;-71
2022/03/05 09:15:11;;;;;;;77.32;13.65;;;;;;;;;;5091369;28;20224;-69
2022/03/05 09:17:38;;;;;;;73.80;12.65;;;;;;;;;;5090695;28;20204;-69
2022/03/05 09:20:06;;;;;;;72.05;12.65;;;;;;;;;;5091771;28;20291;-70
2022/03/05 09:22:33;;;;;;;72.28;12.27;;;;;;;;;;5095427;28;20200;-72
2022/03/05 09:25:01;;;;;;;81.70;12.90;;;;;;;;;;5095430;28;20228;-70
2022/03/05 09:27:29;;;;;;;74.28;11.80;;;;;;;;;;5094569;28;20204;-69
2022/03/05 09:29:58;;;;;;;72.60;12.27;;;;;;;;;;5095314;28;20212;-70
2022/03/05 09:32:25;;;;;;;71.75;11.32;;;;;;;;;;5095067;28;20356;-69
2022/03/05 09:34:52;;;;;;;78.50;12.45;;;;;;;;;;5095233;28;20266;-70
2022/03/05 09:37:19;;;;;;;73.25;11.90;;;;;;;;;;5094359;28;20616;-67
2022/03/05 09:39:48;;;;;;;74.07;12.27;;;;;;;;;;5095076;28;20554;-67
2022/03/05 09:42:15;;;;;;;71.32;12.15;;;;;;;;;;5094836;28;20231;-68
2022/03/05 09:44:43;;;;;;;77.05;12.73;;;;;;;;;;5094708;28;20208;-68
2022/03/05 09:47:10;;;;;;;71.13;11.45;;;;;;;;;;5094273;28;20207;-68
2022/03/05 09:49:38;;;;;;;74.43;11.93;;;;;;;;;;5094860;28;20200;-70
2022/03/05 09:52:06;;;;;;;74.72;12.43;;;;;;;;;;5094850;28;20204;-68
2022/03/05 09:54:33;;;;;;;73.25;10.23;;;;;;;;;;5094357;28;20236;-68
2022/03/05 09:57:00;;;;;;;72.43;10.80;;;;;;;;;;5094530;28;20230;-70
2022/03/05 09:59:27;;;;;;;70.75;10.52;;;;;;;;;;5093719;28;20298;-69
2022/03/05 10:01:56;;;;;;;73.55;11.15;;;;;;;;;;5094491;28;20210;-69
2022/03/05 10:04:24;;;;;;;70.40;10.18;;;;;;;;;;5094592;28;20664;-69
2022/03/05 10:07:07;;;;;;;72.30;10.80;;;;;;;;;;5094533;28;20229;-71
2022/03/05 10:09:34;;;;;;;70.97;9.73;;;;;;;;;;5094139;28;20536;-69
2022/03/05 10:12:02;;;;;;;71.40;10.93;;;;;;;;;;5094448;28;20489;-68
2022/03/05 10:14:29;;;;;;;69.37;9.10;;;;;;;;;;5094368;28;20446;-69
2022/03/05 10:17:01;;;;;;;68.10;9.53;;;;;;;;;;5094254;28;20486;-70
2022/03/05 10:19:28;;;;;;;69.97;9.40;;;;;;;;;;5093794;28;20508;-70
2022/03/05 10:21:57;;;;;;;66.47;9.47;;;;;;;;;;5094224;28;20447;-68
2022/03/05 10:24:31;;;;;;;68.07;9.83;;;;;;;;;;5094237;28;20592;-68
2022/03/05 10:26:59;;;;;;;72.60;9.77;;;;;;;;;;5094299;28;20532;-69
2022/03/05 10:29:26;;;;;;;66.10;8.50;;;;;;;;;;5093446;28;20825;-68
2022/03/05 10:31:58;;;;;;;66.90;9.43;;;;;;;;;;5094047;28;20446;-69
2022/03/05 10:34:26;;;;;;;70.27;9.43;;;;;;;;;;5094103;28;20442;-71
2022/03/05 10:37:00;;;;;;;66.30;8.40;;;;;;;;;;5093545;28;20584;-69
2022/03/05 10:39:28;;;;;;;67.93;8.90;;;;;;;;;;5093318;28;20531;-69
2022/03/05 10:41:56;;;;;;;67.30;8.60;;;;;;;;;;5094012;28;20457;-70
2022/03/05 10:44:23;;;;;;;65.63;8.90;;;;;;;;;;5093864;28;20955;-68
2022/03/05 10:46:56;;;;;;;64.67;7.90;;;;;;;;;;5093928;28;20469;-69
2022/03/05 10:49:24;;;;;;;70.10;9.00;;;;;;;;;;5093089;28;20528;-69
2022/03/05 10:51:54;;;;;;;66.93;9.50;;;;;;;;;;5093967;28;20836;-70
2022/03/05 10:54:26;;;;;;;64.57;8.80;;;;;;;;;;5093535;28;20529;-68
2022/03/05 10:56:56;;;;;;;65.57;10.00;;;;;;;;;;5093506;28;20493;-69
2022/03/05 10:59:23;;;;;;;67.10;8.73;;;;;;;;;;5092953;28;20444;-68
2022/03/05 11:01:51;;;;;;;65.73;8.30;;;;;;;;;;5093360;28;20457;-68
2022/03/05 11:04:18;;;;;;;66.67;8.63;;;;;;;;;;5093453;28;20488;-69
2022/03/05 11:06:46;;;;;;;64.53;8.97;;;;;;;;;;5093533;28;20469;-69
2022/03/05 11:09:15;;;;;;;68.20;10.10;;;;;;;;;;5092762;28;20493;-68
2022/03/05 11:11:43;;;;;;;66.57;8.63;;;;;;;;;;5093365;28;20909;-69
2022/03/05 11:14:13;;;;;;;66.40;8.07;;;;;;;;;;5093125;28;20840;-70
2022/03/05 11:16:40;;;;;;;66.63;8.27;;;;;;;;;;5092945;28;20486;-69
2022/03/05 11:19:07;;;;;;;65.23;8.50;;;;;;;;;;5092634;28;20469;-69
2022/03/05 11:21:35;;;;;;;66.67;8.07;;;;;;;;;;5093363;28;20538;-69
2022/03/05 11:24:02;;;;;;;66.37;9.00;;;;;;;;;;5093146;28;21075;-69
2022/03/05 11:26:31;;;;;;;68.10;9.93;;;;;;;;;;5093171;28;20549;-69
2022/03/05 11:28:59;;;;;;;69.80;9.13;;;;;;;;;;5092111;28;20462;-69
2022/03/05 11:31:30;;;;;;;69.80;11.13;;;;;;;;;;5092795;28;20950;-68
2022/03/05 11:34:11;;;;;;;69.13;8.83;;;;;;;;;;5093125;28;20814;-69
2022/03/05 11:36:39;;;;;;;68.40;9.40;;;;;;;;;;5092877;28;20483;-69
2022/03/05 11:39:07;;;;;;;65.87;8.27;;;;;;;;;;5092259;28;20451;-68
2022/03/05 11:41:48;;;;;;;64.07;7.80;;;;;;;;;;5092790;28;20450;-69
2022/03/05 11:44:15;;;;;;;69.07;9.37;;;;;;;;;;5092333;28;20524;-70
2022/03/05 11:46:43;;;;;;;68.07;8.53;;;;;;;;;;5092765;28;20458;-69
2022/03/05 11:49:10;;;;;;;66.50;8.87;;;;;;;;;;5091911;28;20467;-70
2022/03/05 11:51:51;;;;;;;66.40;8.40;;;;;;;;;;5092531;28;20474;-70
2022/03/05 11:54:19;;;;;;;66.50;9.27;;;;;;;;;;5092851;28;20615;-70
2022/03/05 11:57:01;;;;;;;67.60;9.43;;;;;;;;;;5092479;28;20575;-70
2022/03/05 11:59:33;;;;;;;65.50;8.37;;;;;;;;;;5091720;28;20544;-70
2022/03/05 12:02:00;;;;;;;64.97;8.57;;;;;;;;;;5092381;28;20442;-70
2022/03/05 12:04:28;;;;;;;62.90;7.30;;;;;;;;;;5092306;28;20888;-70
2022/03/05 12:07:00;;;;;;;64.80;8.27;;;;;;;;;;5092574;28;20434;-70
2022/03/05 12:09:44;;;;;;;65.17;6.93;;;;;;;;;;5091303;28;20942;-70
2022/03/05 12:12:12;;;;;;;64.77;7.00;;;;;;;;;;5092407;28;20434;-70
2022/03/05 12:14:58;;;;;;;63.00;6.60;;;;;;;;;;5091984;28;20449;-72
2022/03/05 12:17:27;;;;;;;62.43;6.77;;;;;;;;;;5091525;28;20858;-70
2022/03/05 12:19:55;;;;;;;61.17;6.13;;;;;;;;;;5092350;28;20534;-71
2022/03/05 12:22:22;;;;;;;62.23;6.93;;;;;;;;;;5091983;28;20453;-71
2022/03/05 12:24:49;;;;;;;63.23;6.63;;;;;;;;;;5092104;28;20567;-70
2022/03/05 12:27:17;;;;;;;62.30;6.77;;;;;;;;;;5091274;28;20623;-70
2022/03/05 12:29:48;;;;;;;64.50;6.80;;;;;;;;;;5091948;28;20462;-70
2022/03/05 12:32:15;;;;;;;62.90;6.90;;;;;;;;;;5092015;28;20453;-70
2022/03/05 12:34:44;;;;;;;65.00;6.97;;;;;;;;;;5092161;28;20459;-70
2022/03/05 12:37:11;;;;;;;62.57;6.70;;;;;;;;;;5091170;28;20499;-70
2022/03/05 12:39:42;;;;;;;63.03;7.00;;;;;;;;;;5091578;28;20941;-72
2022/03/05 12:42:10;;;;;;;69.00;6.67;;;;;;;;;;5092233;28;20453;-69
2022/03/05 12:44:37;;;;;;;63.57;7.60;;;;;;;;;;5091767;28;20455;-69
2022/03/05 12:47:05;;;;;;;63.47;6.80;;;;;;;;;;5092133;28;20445;-71
2022/03/05 12:49:32;;;;;;;64.23;7.97;;;;;;;;;;5091420;28;20450;-70
2022/03/05 12:52:00;;;;;;;63.40;6.83;;;;;;;;;;5091756;28;20537;-70
2022/03/05 12:54:27;;;;;;;65.33;8.40;;;;;;;;;;5091632;28;20445;-69
2022/03/05 12:56:56;;;;;;;64.97;7.53;;;;;;;;;;5094813;28;20955;-70
2022/03/05 12:59:23;;;;;;;64.70;8.33;;;;;;;;;;5095234;28;20446;-70
2022/03/05 13:01:51;;;;;;;65.17;8.53;;;;;;;;;;5095898;28;20447;-69
2022/03/05 13:04:18;;;;;;;65.13;9.53;;;;;;;;;;5095852;28;20450;-69
2022/03/05 13:06:48;;;;;;;65.87;8.03;;;;;;;;;;5095463;28;20456;-69
2022/03/05 13:09:17;;;;;;;65.30;8.23;;;;;;;;;;5095418;28;20453;-69
2022/03/05 13:11:48;;;;;;;64.80;8.07;;;;;;;;;;5095852;28;20541;-69
2022/03/05 13:14:20;;;;;;;65.07;7.50;;;;;;;;;;5095574;28;20453;-70
2022/03/05 13:16:49;;;;;;;65.30;7.47;;;;;;;;;;5095576;28;20548;-71
2022/03/05 13:19:17;;;;;;;63.20;7.40;;;;;;;;;;5094700;28;20438;-69
2022/03/05 13:21:45;;;;;;;64.90;8.30;;;;;;;;;;5095591;28;20478;-70
2022/03/05 13:24:13;;;;;;;63.47;7.60;;;;;;;;;;5095413;28;20524;-70
2022/03/05 13:26:43;;;;;;;63.07;7.10;;;;;;;;;;5095269;28;20476;-70
2022/03/05 13:29:10;;;;;;;63.63;6.97;;;;;;;;;;5094609;28;20892;-70
2022/03/05 13:31:37;;;;;;;65.20;8.73;;;;;;;;;;5095123;28;20510;-70
2022/03/05 13:34:04;;;;;;;63.73;7.50;;;;;;;;;;5095161;28;20435;-70
2022/03/05 13:36:37;;;;;;;63.37;8.40;;;;;;;;;;5094926;28;20520;-71
2022/03/05 13:39:08;;;;;;;69.97;12.00;;;;;;;;;;5094444;28;20529;-69
2022/03/05 13:41:35;;;;;;;64.93;7.97;;;;;;;;;;5094934;28;20959;-69
2022/03/05 13:44:05;;;;;;;65.37;8.30;;;;;;;;;;5094828;28;20970;-69
2022/03/05 13:46:32;;;;;;;64.73;7.90;;;;;;;;;;5095099;28;20476;-69
2022/03/05 13:49:01;;;;;;;64.83;7.30;;;;;;;;;;5094114;28;20447;-69
2022/03/05 13:51:29;;;;;;;64.60;7.23;;;;;;;;;;5095000;28;20458;-70
2022/03/05 13:53:58;;;;;;;68.00;8.30;;;;;;;;;;5094883;28;20541;-69
2022/03/05 13:56:25;;;;;;;66.50;8.00;;;;;;;;;;5095045;28;20462;-69
2022/03/05 13:58:53;;;;;;;63.63;8.40;;;;;;;;;;5093994;28;20865;-69
2022/03/05 14:01:32;;;;;;;65.80;7.53;;;;;;;;;;5094897;28;20477;-69
2022/03/05 14:04:21;;;;;;;64.60;8.03;;;;;;;;;;5094888;28;20533;-68
2022/03/05 14:06:52;;;;;;;64.50;7.30;;;;;;;;;;5087464;28;20473;-69
2022/03/05 14:09:20;;;;;;;67.50;8.30;;;;;;;;;;5093753;28;20521;-69
2022/03/05 14:11:48;;;;;;;68.33;7.63;;;;;;;;;;5094595;28;20435;-69
2022/03/05 14:14:15;;;;;;;63.43;6.97;;;;;;;;;;5094452;28;20486;-70
2022/03/05 14:16:45;;;;;;;64.07;8.13;;;;;;;;;;5094388;28;20898;-69
2022/03/05 14:19:27;;;;;;;61.80;6.30;;;;;;;;;;5093588;28;20565;-69
2022/03/05 14:22:04;;;;;;;62.97;7.03;;;;;;;;;;5094360;28;20820;-68
2022/03/05 14:24:31;;;;;;;63.00;7.53;;;;;;;;;;5094190;28;20895;-69
2022/03/05 14:26:58;;;;;;;63.83;7.30;;;;;;;;;;5093994;28;20964;-68
2022/03/05 14:29:26;;;;;;;64.93;7.20;;;;;;;;;;5093345;28;20457;-69
2022/03/05 14:31:54;;;;;;;61.87;6.10;;;;;;;;;;5094106;28;20537;-68